createdAt,value
2022-11-02T00:00:10.341Z,89.30
2022-11-02T00:02:41.260Z,86.50
2022-11-02T00:05:14.925Z,86.40
2022-11-02T00:07:46.371Z,86.30
2022-11-02T00:10:17.626Z,86.30
2022-11-02T00:12:48.806Z,86.20
2022-11-02T00:15:25.289Z,86.10
2022-11-02T00:17:58.516Z,86.20
2022-11-02T00:20:29.655Z,85.90
2022-11-02T00:23:03.382Z,85.70
2022-11-02T00:25:34.562Z,85.80
2022-11-02T00:28:05.364Z,85.40
2022-11-02T00:30:36.187Z,84.90
2022-11-02T00:33:07.678Z,84.40
2022-11-02T00:35:39.436Z,83.80
2022-11-02T00:38:10.435Z,86.40
2022-11-02T00:40:41.239Z,82.60
2022-11-02T00:43:12.206Z,82.20
2022-11-02T00:45:43.158Z,81.70
2022-11-02T00:48:13.923Z,81.20
2022-11-02T00:50:45.077Z,81.10
2022-11-02T00:53:36.527Z,81.50
2022-11-02T00:56:28.482Z,80.80
2022-11-02T00:59:03.007Z,80.90
2022-11-02T01:01:34.208Z,81.10
2022-11-02T01:04:05.294Z,80.70
2022-11-02T01:06:37.380Z,82.60
2022-11-02T01:09:08.449Z,80.60
2022-11-02T01:11:41.356Z,80.70
2022-11-02T01:14:13.378Z,80.10
2022-11-02T01:19:16.990Z,79.20
2022-11-02T01:21:49.345Z,79.40
2022-11-02T01:24:20.110Z,79.00
2022-11-02T01:26:53.005Z,79.30
2022-11-02T01:29:23.853Z,79.10
2022-11-02T01:32:01.327Z,78.70
2022-11-02T01:34:30.944Z,78.40
2022-11-02T01:37:08.095Z,79.00
2022-11-02T01:39:38.898Z,79.10
2022-11-02T01:42:30.346Z,78.10
2022-11-02T01:45:01.153Z,77.90
2022-11-02T01:47:38.429Z,78.20
2022-11-02T01:50:25.298Z,77.10
2022-11-02T01:59:00.724Z,75.50
2022-11-02T02:01:31.997Z,73.80
2022-11-02T02:04:03.729Z,74.00
2022-11-02T02:06:35.388Z,73.30
2022-11-02T02:09:08.318Z,73.50
2022-11-02T02:11:41.933Z,74.50
2022-11-02T02:14:18.272Z,73.90
2022-11-02T02:17:19.552Z,74.30
2022-11-02T02:20:04.709Z,74.00
2022-11-02T02:22:47.034Z,74.20
2022-11-02T02:25:29.101Z,74.40
2022-11-02T02:28:22.133Z,73.70
2022-11-02T02:31:10.612Z,74.10
2022-11-02T02:34:08.916Z,73.30
2022-11-02T02:36:53.328Z,74.40
2022-11-02T02:39:32.438Z,73.40
2022-11-02T02:42:11.725Z,73.20
2022-11-02T02:44:48.580Z,73.80
2022-11-02T02:47:33.615Z,74.40
2022-11-02T02:50:31.492Z,74.60
2022-11-02T02:53:13.207Z,74.70
2022-11-02T02:55:47.845Z,75.50
2022-11-02T02:58:30.231Z,74.70
2022-11-02T03:01:05.410Z,75.00
2022-11-02T03:03:37.157Z,74.30
2022-11-02T03:06:13.411Z,73.70
2022-11-02T03:08:47.218Z,74.40
2022-11-02T03:11:24.723Z,73.20
2022-11-02T03:14:16.032Z,73.00
2022-11-02T03:17:15.561Z,72.30
2022-11-02T03:20:03.793Z,72.70
2022-11-02T03:22:37.162Z,71.40
2022-11-02T03:25:22.595Z,71.00
2022-11-02T03:28:18.890Z,71.00
2022-11-02T03:30:51.166Z,70.10
2022-11-02T03:33:33.700Z,71.00
2022-11-02T03:36:16.032Z,70.30
2022-11-02T03:38:55.401Z,70.20
2022-11-02T03:41:28.363Z,69.50
2022-11-02T03:44:10.594Z,69.60
2022-11-02T03:46:46.240Z,68.10
2022-11-02T03:49:19.566Z,66.40
2022-11-02T03:51:52.110Z,67.60
2022-11-02T03:54:44.728Z,66.20
2022-11-02T03:57:18.072Z,66.30
2022-11-02T03:59:49.046Z,63.70
2022-11-02T04:02:21.174Z,64.80
2022-11-02T04:04:54.443Z,64.40
2022-11-02T04:07:30.631Z,62.60
2022-11-02T04:15:25.132Z,99.90
2022-11-02T04:18:13.529Z,62.80
2022-11-02T04:20:44.464Z,62.70
2022-11-02T04:23:32.591Z,62.30
2022-11-02T04:26:03.572Z,62.90
2022-11-02T04:28:39.063Z,63.30
2022-11-02T04:31:09.884Z,62.90
2022-11-02T04:33:41.681Z,62.90
2022-11-02T04:36:12.584Z,63.20
2022-11-02T04:38:43.405Z,61.60
2022-11-02T04:41:33.043Z,62.30
2022-11-02T04:44:04.367Z,61.70
2022-11-02T04:46:38.206Z,61.50
2022-11-02T04:49:09.613Z,61.30
2022-11-02T04:51:47.136Z,60.80
2022-11-02T04:54:14.459Z,60.80
2022-11-02T04:56:45.267Z,60.40
2022-11-02T04:59:16.200Z,59.90
2022-11-02T05:01:49.980Z,59.70
2022-11-02T05:04:24.353Z,59.70
2022-11-02T05:07:00.295Z,58.80
2022-11-02T05:09:27.372Z,57.80
2022-11-02T05:11:58.998Z,58.10
2022-11-02T05:14:30.780Z,57.90
2022-11-02T05:17:01.728Z,57.80
2022-11-02T05:19:32.521Z,57.30
2022-11-02T05:22:03.393Z,58.20
2022-11-02T05:24:34.177Z,58.60
2022-11-02T05:27:05.099Z,58.00
2022-11-02T05:29:35.896Z,58.70
2022-11-02T05:32:07.480Z,58.90
2022-11-02T05:34:38.330Z,58.70
2022-11-02T05:37:09.154Z,58.70
2022-11-02T05:39:39.941Z,58.80
2022-11-02T05:42:10.751Z,58.80
2022-11-02T05:44:41.760Z,58.80
2022-11-02T05:47:12.694Z,59.20
2022-11-02T05:49:43.497Z,58.70
2022-11-02T05:52:14.336Z,58.50
2022-11-02T05:54:46.492Z,58.60
2022-11-02T05:57:18.348Z,58.60
2022-11-02T05:59:49.571Z,59.40
2022-11-02T06:02:24.728Z,59.10
2022-11-02T06:04:52.771Z,62.40
2022-11-02T06:07:24.317Z,58.40
2022-11-02T06:09:55.244Z,57.40
2022-11-02T06:12:26.131Z,56.70
2022-11-02T06:14:57.030Z,57.30
2022-11-02T06:17:27.838Z,57.90
2022-11-02T06:19:58.678Z,57.80
2022-11-02T06:22:29.468Z,57.10
2022-11-02T06:25:00.247Z,57.30
2022-11-02T06:27:31.052Z,57.10
2022-11-02T06:30:01.921Z,56.70
2022-11-02T06:32:32.735Z,57.20
2022-11-02T06:35:03.710Z,57.60
2022-11-02T06:37:36.330Z,57.50
2022-11-02T06:40:07.782Z,58.00
2022-11-02T06:42:44.814Z,57.70
2022-11-02T06:45:11.854Z,57.60
2022-11-02T06:47:44.861Z,57.30
2022-11-02T06:50:15.180Z,57.60
2022-11-02T06:52:47.374Z,57.40
2022-11-02T06:55:21.252Z,57.30
2022-11-02T06:57:52.064Z,56.70
2022-11-02T07:00:24.517Z,57.70
2022-11-02T07:03:06.664Z,57.20
2022-11-02T07:05:40.674Z,57.60
2022-11-02T07:08:11.569Z,57.70
2022-11-02T07:10:47.722Z,57.80
2022-11-02T07:13:18.909Z,57.90
2022-11-02T07:15:49.787Z,57.80
2022-11-02T07:18:20.602Z,57.90
2022-11-02T07:20:55.450Z,57.60
2022-11-02T07:23:32.771Z,57.00
2022-11-02T07:26:05.703Z,57.70
2022-11-02T07:28:41.654Z,58.00
2022-11-02T07:31:11.822Z,58.00
2022-11-02T07:33:42.722Z,57.70
2022-11-02T07:36:13.671Z,58.50
2022-11-02T07:38:46.581Z,58.00
2022-11-02T07:41:20.943Z,58.40
2022-11-02T07:43:53.092Z,57.90
2022-11-02T07:46:26.424Z,58.00
2022-11-02T07:48:57.550Z,58.40
2022-11-02T07:51:29.723Z,58.80
2022-11-02T07:54:01.816Z,58.70
2022-11-02T07:56:32.634Z,57.80
2022-11-02T07:59:03.746Z,58.40
2022-11-02T08:01:34.637Z,58.30
2022-11-02T08:04:05.599Z,57.50
2022-11-02T08:06:37.646Z,58.20
2022-11-02T08:09:08.465Z,58.10
2022-11-02T08:11:39.279Z,57.80
2022-11-02T08:14:10.527Z,58.20
2022-11-02T08:16:41.350Z,57.90
2022-11-02T08:19:13.615Z,57.70
2022-11-02T08:21:44.415Z,57.90
2022-11-02T08:24:17.738Z,57.90
2022-11-02T08:26:53.912Z,58.70
2022-11-02T08:29:27.130Z,58.70
2022-11-02T08:31:58.482Z,58.20
2022-11-02T08:34:30.888Z,58.20
2022-11-02T08:37:02.778Z,57.80
2022-11-02T08:39:34.913Z,58.00
2022-11-02T08:42:08.784Z,57.90
2022-11-02T08:44:42.655Z,58.20
2022-11-02T08:47:14.973Z,58.30
2022-11-02T08:49:45.363Z,58.00
2022-11-02T08:52:16.171Z,57.80
2022-11-02T08:54:46.988Z,57.80
2022-11-02T08:57:17.837Z,58.30
2022-11-02T08:59:48.647Z,58.30
2022-11-02T09:02:19.627Z,58.40
2022-11-02T09:04:50.445Z,58.30
2022-11-02T09:07:24.119Z,58.80
2022-11-02T09:09:54.896Z,58.40
2022-11-02T09:12:25.731Z,58.40
2022-11-02T09:14:56.529Z,58.30
2022-11-02T09:17:27.368Z,58.70
2022-11-02T09:19:58.174Z,58.90
2022-11-02T09:22:29.008Z,59.00
2022-11-02T09:24:59.989Z,59.10
2022-11-02T09:27:30.817Z,58.70
2022-11-02T09:30:01.660Z,58.70
2022-11-02T09:32:36.398Z,58.50
2022-11-02T09:35:11.121Z,58.80
2022-11-02T09:37:43.232Z,58.90
2022-11-02T09:40:16.002Z,58.60
2022-11-02T09:42:49.340Z,58.00
2022-11-02T09:45:22.384Z,58.40
2022-11-02T09:48:22.032Z,58.20
2022-11-02T09:50:39.845Z,57.90
2022-11-02T09:53:12.815Z,57.10
2022-11-02T09:55:46.102Z,57.80
2022-11-02T09:58:19.461Z,57.80
2022-11-02T10:00:53.669Z,57.40
2022-11-02T10:03:39.437Z,57.50
2022-11-02T10:06:16.746Z,57.40
2022-11-02T10:09:01.826Z,57.70
2022-11-02T10:11:51.683Z,57.80
2022-11-02T10:14:25.011Z,57.80
2022-11-02T10:17:04.131Z,58.00
2022-11-02T10:19:37.800Z,57.60
2022-11-02T10:22:11.013Z,58.10
2022-11-02T10:24:49.081Z,58.10
2022-11-02T10:27:31.048Z,59.00
2022-11-02T10:30:19.591Z,58.30
2022-11-02T10:32:58.679Z,58.30
2022-11-02T10:35:51.492Z,58.30
2022-11-02T10:38:40.887Z,58.30
2022-11-02T10:41:38.555Z,58.50
2022-11-02T10:44:36.110Z,58.40
2022-11-02T10:47:09.475Z,58.60
2022-11-02T10:50:37.043Z,58.70
2022-11-02T10:53:35.409Z,58.10
2022-11-02T10:56:04.870Z,58.70
2022-11-02T10:58:40.917Z,58.60
2022-11-02T11:01:21.628Z,58.60
2022-11-02T11:04:00.692Z,58.60
2022-11-02T11:06:40.236Z,58.50
2022-11-02T11:09:22.229Z,58.70
2022-11-02T11:11:58.544Z,58.80
2022-11-02T11:19:42.652Z,59.10
2022-11-02T11:22:25.978Z,59.30
2022-11-02T11:25:06.569Z,59.70
2022-11-02T11:27:41.705Z,59.80
2022-11-02T11:30:20.628Z,60.20
2022-11-02T11:32:54.748Z,60.60
2022-11-02T11:35:28.227Z,61.10
2022-11-02T11:38:03.245Z,62.00
2022-11-02T11:40:37.060Z,62.80
2022-11-02T11:43:12.595Z,63.40
2022-11-02T11:46:06.490Z,63.90
2022-11-02T11:48:44.242Z,64.00
2022-11-02T11:51:36.520Z,64.50
2022-11-02T11:54:23.823Z,65.10
2022-11-02T11:57:00.421Z,65.40
2022-11-02T11:59:34.600Z,66.20
2022-11-02T12:02:06.880Z,65.60
2022-11-02T12:04:40.008Z,67.10
2022-11-02T12:07:25.130Z,66.50
2022-11-02T12:10:01.505Z,67.00
2022-11-02T12:12:43.747Z,67.40
2022-11-02T12:15:37.726Z,67.30
2022-11-02T12:18:20.396Z,67.70
2022-11-02T12:21:00.385Z,68.60
2022-11-02T12:23:59.235Z,69.10
2022-11-02T12:26:44.134Z,69.00
2022-11-02T12:29:40.020Z,68.90
2022-11-02T12:32:38.284Z,69.40
2022-11-02T12:35:44.780Z,69.70
2022-11-02T12:38:21.083Z,71.30
2022-11-02T12:41:16.441Z,71.90
2022-11-02T12:44:20.199Z,72.10
2022-11-02T12:53:35.057Z,73.10
2022-11-02T12:53:58.589Z,73.50
2022-11-02T12:56:58.163Z,74.20
2022-11-02T13:03:15.028Z,74.20
2022-11-02T13:05:51.987Z,75.00
2022-11-02T13:08:27.570Z,74.70
2022-11-02T13:11:01.949Z,75.00
2022-11-02T13:13:40.707Z,74.60
2022-11-02T13:16:15.932Z,74.40
2022-11-02T13:19:01.132Z,74.20
2022-11-02T13:21:49.331Z,74.10
2022-11-02T13:24:30.658Z,75.10
2022-11-02T13:27:14.332Z,75.60
2022-11-02T13:29:39.277Z,75.80
2022-11-02T13:32:33.626Z,75.70
2022-11-02T13:35:07.349Z,75.20
2022-11-02T13:37:41.996Z,75.50
2022-11-02T13:40:25.071Z,76.50
2022-11-02T13:43:27.239Z,76.70
2022-11-02T13:46:17.277Z,76.90
2022-11-02T13:49:00.592Z,76.80
2022-11-02T13:51:44.392Z,77.20
2022-11-02T13:54:19.978Z,78.10
2022-11-02T13:57:13.498Z,78.10
2022-11-02T13:59:50.056Z,78.10
2022-11-02T14:02:23.380Z,78.50
2022-11-02T14:05:17.344Z,78.50
2022-11-02T14:07:55.018Z,78.50
2022-11-02T14:10:26.464Z,78.60
2022-11-02T14:13:00.982Z,78.50
2022-11-02T14:15:39.457Z,78.70
2022-11-02T14:18:15.946Z,79.20
2022-11-02T14:20:56.567Z,79.20
2022-11-02T14:23:35.108Z,79.00
2022-11-02T14:26:11.327Z,79.00
2022-11-02T14:28:48.975Z,78.80
2022-11-02T14:31:23.017Z,78.90
2022-11-02T14:34:16.395Z,79.50
2022-11-02T14:37:16.274Z,79.50
2022-11-02T14:40:01.897Z,77.60
2022-11-02T14:42:35.474Z,77.20
2022-11-02T14:45:36.386Z,77.20
2022-11-02T14:48:11.905Z,76.90
2022-11-02T14:50:45.248Z,76.60
2022-11-02T14:53:26.973Z,76.80
2022-11-02T14:56:01.693Z,76.70
2022-11-02T14:58:44.154Z,76.70
2022-11-02T15:01:18.528Z,77.20
2022-11-02T15:03:52.644Z,78.30
2022-11-02T15:06:27.816Z,79.00
2022-11-02T15:09:03.237Z,79.60
2022-11-02T15:12:05.709Z,80.70
2022-11-02T15:14:43.879Z,81.30
2022-11-02T15:17:27.691Z,81.70
2022-11-02T15:20:20.954Z,82.30
2022-11-02T15:23:01.730Z,82.30
2022-11-02T15:25:39.079Z,82.50
2022-11-02T15:28:16.401Z,82.90
2022-11-02T15:30:59.505Z,83.30
2022-11-02T15:33:42.589Z,83.90
2022-11-02T15:36:32.297Z,84.70
2022-11-02T15:39:05.880Z,84.10
2022-11-02T15:41:45.919Z,84.60
2022-11-02T15:44:28.908Z,84.70
2022-11-02T15:47:16.512Z,85.60
2022-11-02T15:50:12.298Z,85.90
2022-11-02T15:53:16.911Z,85.80
2022-11-02T15:55:41.235Z,85.90
2022-11-02T15:58:29.564Z,86.50
2022-11-02T16:01:21.014Z,86.80
2022-11-02T16:03:58.435Z,86.60
2022-11-02T16:06:48.100Z,86.70
2022-11-02T16:09:40.451Z,86.90
2022-11-02T16:12:20.227Z,87.90
2022-11-02T16:15:02.382Z,89.30
2022-11-02T16:17:34.517Z,87.10
2022-11-02T16:20:26.044Z,88.10
2022-11-02T16:23:10.157Z,87.30
2022-11-02T16:25:46.515Z,87.00
2022-11-02T16:28:25.529Z,86.00
2022-11-02T16:31:18.620Z,84.60
2022-11-02T16:33:48.685Z,83.70
2022-11-02T16:36:22.390Z,82.40
2022-11-02T16:39:09.449Z,82.10
2022-11-02T16:41:40.646Z,81.90
2022-11-02T16:44:14.133Z,82.40
2022-11-02T16:47:02.615Z,81.60
2022-11-02T16:49:33.430Z,81.60
2022-11-02T16:52:21.756Z,81.20
2022-11-02T16:54:54.263Z,81.10
2022-11-02T16:57:27.498Z,81.30
2022-11-02T17:00:03.870Z,81.30
2022-11-02T17:02:46.228Z,81.80
2022-11-02T17:05:28.171Z,82.00
2022-11-02T17:08:06.279Z,82.50
2022-11-02T17:10:38.587Z,82.80
2022-11-02T17:13:13.066Z,83.00
2022-11-02T17:15:55.698Z,83.00
2022-11-02T17:18:31.308Z,83.30
2022-11-02T17:21:21.227Z,83.50
2022-11-02T17:23:58.469Z,83.70
2022-11-02T17:26:49.533Z,83.50
2022-11-02T17:29:31.534Z,83.40
2022-11-02T17:32:02.578Z,83.30
2022-11-02T17:34:33.833Z,83.30
2022-11-02T17:37:12.593Z,83.50
2022-11-02T17:39:45.192Z,83.60
2022-11-02T17:42:34.362Z,83.40
2022-11-02T17:45:40.616Z,83.30
2022-11-02T17:48:13.012Z,82.70
2022-11-02T17:50:44.897Z,82.50
2022-11-02T17:53:16.147Z,82.60
2022-11-02T17:55:47.157Z,82.50
2022-11-02T17:58:18.241Z,82.40
2022-11-02T18:00:54.337Z,82.50
2022-11-02T18:03:31.218Z,81.80
2022-11-02T18:06:01.336Z,82.10
2022-11-02T18:08:32.459Z,81.50
2022-11-02T18:11:10.877Z,82.20
2022-11-02T18:13:41.741Z,81.50
2022-11-02T18:16:28.910Z,81.50
2022-11-02T18:18:50.825Z,81.60
2022-11-02T18:21:21.653Z,81.90
2022-11-02T18:23:52.469Z,81.90
2022-11-02T18:28:53.383Z,82.30
2022-11-02T18:31:24.209Z,83.30
2022-11-02T18:33:55.011Z,84.10
2022-11-02T18:39:28.266Z,85.80
2022-11-02T18:41:57.951Z,86.50
2022-11-02T18:47:00.428Z,87.10
2022-11-02T18:49:31.225Z,87.90
2022-11-02T18:52:21.440Z,87.90
2022-11-02T18:54:47.450Z,88.10
2022-11-02T18:57:18.642Z,88.10
2022-11-02T18:59:49.446Z,88.60
2022-11-02T19:02:20.273Z,88.70
2022-11-02T19:04:51.104Z,89.00
2022-11-02T19:07:39.311Z,89.20
2022-11-02T19:10:11.051Z,89.30
2022-11-02T19:12:41.951Z,89.50
2022-11-02T19:15:16.924Z,89.70
2022-11-02T19:17:47.999Z,90.00
2022-11-02T19:20:19.072Z,90.30
2022-11-02T19:22:54.526Z,90.50
2022-11-02T19:25:23.265Z,90.90
2022-11-02T19:27:54.092Z,90.90
2022-11-02T19:30:24.919Z,90.90
2022-11-02T19:32:55.698Z,91.10
2022-11-02T19:35:26.481Z,91.30
2022-11-02T19:38:00.364Z,91.40
2022-11-02T19:40:31.210Z,91.70
2022-11-02T19:43:02.088Z,92.80
2022-11-02T19:45:32.966Z,92.40
2022-11-02T19:48:04.994Z,93.20
2022-11-02T19:50:36.162Z,93.20
2022-11-02T19:53:07.029Z,92.20
2022-11-02T19:55:37.841Z,92.60
2022-11-02T19:58:08.660Z,95.00
2022-11-02T20:00:41.941Z,99.90
2022-11-02T20:03:12.812Z,99.90
2022-11-02T20:05:43.644Z,99.90
2022-11-02T20:08:58.041Z,99.90
2022-11-02T20:11:30.180Z,99.90
2022-11-02T20:14:02.296Z,99.90
2022-11-02T20:21:39.885Z,99.90
2022-11-02T20:24:08.785Z,99.90
2022-11-02T20:26:41.899Z,99.90
2022-11-02T20:29:15.517Z,99.90
2022-11-02T20:31:45.586Z,99.90
2022-11-02T20:34:16.904Z,99.90
2022-11-02T20:36:57.931Z,99.90
2022-11-02T20:39:28.763Z,99.90
2022-11-02T20:41:59.672Z,99.90
2022-11-02T20:44:30.557Z,99.90
2022-11-02T20:47:01.382Z,99.90
2022-11-02T20:52:04.372Z,99.90
2022-11-02T20:54:35.135Z,99.90
2022-11-02T20:57:05.948Z,99.90
2022-11-02T20:59:36.783Z,99.90
2022-11-02T21:20:33.024Z,93.90
2022-11-02T21:22:47.572Z,94.30
2022-11-02T21:25:18.432Z,94.20
2022-11-02T21:27:53.478Z,94.20
2022-11-02T21:30:24.307Z,94.40
2022-11-02T21:32:56.013Z,94.40
2022-11-02T21:35:30.273Z,94.40
2022-11-02T21:38:05.272Z,94.10
2022-11-02T21:40:33.781Z,94.00
2022-11-02T21:43:04.893Z,94.10
2022-11-02T21:45:38.083Z,94.30
2022-11-02T21:48:08.322Z,94.30
2022-11-02T21:50:39.064Z,94.50
2022-11-02T21:53:09.882Z,94.60
2022-11-02T21:55:40.668Z,94.60
2022-11-02T21:58:12.040Z,94.50
2022-11-02T22:01:00.349Z,94.00
2022-11-02T22:03:31.199Z,93.80
2022-11-02T22:06:02.117Z,94.00
2022-11-02T22:08:42.000Z,93.50
2022-11-02T22:11:18.214Z,93.70
2022-11-02T22:13:50.148Z,93.90
2022-11-02T22:16:24.745Z,93.70
2022-11-02T22:18:57.938Z,93.60
2022-11-02T22:21:30.320Z,93.70
2022-11-02T22:24:01.916Z,94.00
2022-11-02T22:26:33.501Z,93.90
2022-11-02T22:29:05.170Z,93.60
2022-11-02T22:31:43.153Z,93.10
2022-11-02T22:34:15.891Z,93.20
2022-11-02T22:36:48.648Z,93.00
2022-11-02T22:39:19.737Z,93.30
2022-11-02T22:41:51.053Z,93.50
2022-11-02T22:44:23.591Z,93.30
2022-11-02T22:46:54.603Z,93.40
2022-11-02T22:49:25.382Z,93.80
2022-11-02T22:51:56.232Z,94.00
2022-11-02T22:54:27.007Z,93.90
2022-11-02T22:56:58.614Z,94.10
2022-11-02T22:59:29.407Z,94.10
2022-11-02T23:02:00.465Z,94.50
2022-11-02T23:04:31.253Z,94.20
2022-11-02T23:07:02.119Z,94.60
2022-11-02T23:09:33.159Z,94.60
2022-11-02T23:12:03.958Z,94.70
2022-11-02T23:14:34.766Z,94.80
2022-11-02T23:17:06.122Z,94.80
2022-11-02T23:19:38.322Z,94.60
2022-11-02T23:22:28.520Z,94.60
2022-11-02T23:25:13.070Z,94.50
2022-11-02T23:28:06.215Z,94.40
2022-11-02T23:30:56.450Z,94.10
2022-11-02T23:33:32.354Z,94.10
2022-11-02T23:36:13.931Z,94.20
2022-11-02T23:39:03.397Z,94.00
2022-11-02T23:41:35.409Z,94.10
2022-11-02T23:44:19.487Z,94.00
2022-11-02T23:46:51.525Z,94.00
2022-11-02T23:49:22.301Z,93.90
2022-11-02T23:52:10.563Z,93.60
2022-11-02T23:54:58.965Z,93.50
2022-11-02T23:57:31.144Z,93.10
